Townsend, GA (31331)

10:20 AM EDT on August 20, 2014 (GMT -0400)
Center of Liberty | Change Station
CLOSE
Current Station
Personal Weather Station
Location: Liberty County, GA
Elevation: 21 ft
Nearby Weather Stations

Elev 21 ft 31.82 °N, 81.50 °W | Updated 5 seconds ago

Clear
Clear
83.0 °F
Feels Like 91 °F
N
8.1
Wind Variable Wind from ENE
Gusts 8.1 mph

Today
High -- | Low -- °F
--% Chance of Precip.
Yesterday
High -- | Low -- °F
Precip. -- in
6:54 AM 8:03 PM
Waning Crescent, 21% visible
Pressure 30.06 in
Visibility 10.0 miles
Clouds Clear
Heat Index 91 °F
Dew Point 76 °F
Humidity 79%
Rainfall 0.00 in
Snow Depth Not available.
UV 6 out of 12
Pollen 5.50 out of 12
Air Quality Not available.
Flu Activity Not available.
METAR KBQK 201415Z AUTO 27008KT 10SM CLR 30/21 A3006 RMK AO1

More Conditions Fewer Conditions

Pressure 30.06 in
Visibility 10.0 miles
Clouds Clear
Heat Index 91 °F
Dew Point 76 °F
Humidity 79%
Rainfall 0.00 in
Snow Depth Not available.
UV 6 out of 12
Pollen 5.50 out of 12
Air Quality Not available.
Flu Activity Not available.
METAR KBQK 201415Z AUTO 27008KT 10SM CLR 30/21 A3006 RMK AO1

More Conditions Fewer Conditions

10-Day Weather Forecast

Almanac

Astronomy

Aug. 20, 2014 Rise Set
Actual Time 6:54 AM EDT 8:03 PM EDT
Civil Twilight 6:28 AM EDT 8:28 PM EDT
Nautical Twilight 5:58 AM EDT 8:59 PM EDT
Astronomical Twilight 5:27 AM EDT 9:30 PM EDT
Moon 2:39 AM EDT 4:41 PM EDT
Length of Visible Light 14h 00m
Length of Day
13h 09m
Tomorrow will be 1m 45s shorter.
Waning Crescent, 21% of the Moon is Illuminated
Today
Waning Crescent
Aug 25
New
Sep 2
First Quarter
Sep 8
Full
Sep 15
Last Quarter

Today's Extremes

State Highs State Lows

Community

WunderPhotos

Upload Photos

1,745,641 photos uploaded!

Nearby

Snow Depth

Station Depth Elevation
No new snow has been reported.

Earthquake Activity

City Distance Mag. Time & Date
No recent earthquake activity has been reported nearby.
Minimum magnitude displayed is 2.5.

Coastal Water Temperatures

Place Temperature
No Stations Reporting

Nearby Weather Stations